sensor_id;sensor_type;location;lat;lon;timestamp;temperature;humidity
13229;DHT22;6680;53.220;10.402;2024-03-02T00:00:38;8.30;99.90
13229;DHT22;6680;53.220;10.402;2024-03-02T00:03:07;8.30;99.90
13229;DHT22;6680;53.220;10.402;2024-03-02T00:05:35;8.30;99.90
13229;DHT22;6680;53.220;10.402;2024-03-02T00:08:05;8.30;99.90
13229;DHT22;6680;53.220;10.402;2024-03-02T00:10:36;8.30;99.90
13229;DHT22;6680;53.220;10.402;2024-03-02T00:13:05;8.30;99.90
13229;DHT22;6680;53.220;10.402;2024-03-02T00:15:45;8.20;99.90
13229;DHT22;6680;53.220;10.402;2024-03-02T00:18:14;8.30;99.90
13229;DHT22;6680;53.220;10.402;2024-03-02T00:20:41;8.30;99.90
13229;DHT22;6680;53.220;10.402;2024-03-02T00:23:10;8.20;99.90
13229;DHT22;6680;53.220;10.402;2024-03-02T00:25:40;8.20;99.90
13229;DHT22;6680;53.220;10.402;2024-03-02T00:28:13;8.30;99.90
13229;DHT22;6680;53.220;10.402;2024-03-02T00:30:51;8.30;99.90
13229;DHT22;6680;53.220;10.402;2024-03-02T00:33:20;8.30;99.90
13229;DHT22;6680;53.220;10.402;2024-03-02T00:35:47;8.30;99.90
13229;DHT22;6680;53.220;10.402;2024-03-02T00:38:16;8.30;99.90
13229;DHT22;6680;53.220;10.402;2024-03-02T00:40:43;8.30;99.90
13229;DHT22;6680;53.220;10.402;2024-03-02T00:43:28;8.20;99.90
13229;DHT22;6680;53.220;10.402;2024-03-02T00:45:57;8.20;99.90
13229;DHT22;6680;53.220;10.402;2024-03-02T00:48:24;8.20;99.90
13229;DHT22;6680;53.220;10.402;2024-03-02T00:50:52;8.20;99.90
13229;DHT22;6680;53.220;10.402;2024-03-02T00:53:23;8.20;99.90
13229;DHT22;6680;53.220;10.402;2024-03-02T00:55:51;8.10;99.90
13229;DHT22;6680;53.220;10.402;2024-03-02T00:58:18;8.10;99.90
13229;DHT22;6680;53.220;10.402;2024-03-02T01:00:44;8.10;99.90
13229;DHT22;6680;53.220;10.402;2024-03-02T01:03:12;8.00;99.90
13229;DHT22;6680;53.220;10.402;2024-03-02T01:05:41;8.00;99.90
13229;DHT22;6680;53.220;10.402;2024-03-02T01:08:09;7.90;99.90
13229;DHT22;6680;53.220;10.402;2024-03-02T01:10:37;7.80;99.90
13229;DHT22;6680;53.220;10.402;2024-03-02T01:13:04;7.90;99.90
13229;DHT22;6680;53.220;10.402;2024-03-02T01:15:31;7.80;99.90
13229;DHT22;6680;53.220;10.402;2024-03-02T01:17:58;7.80;99.90
13229;DHT22;6680;53.220;10.402;2024-03-02T01:20:25;7.80;99.90
13229;DHT22;6680;53.220;10.402;2024-03-02T01:22:52;7.70;99.90
13229;DHT22;6680;53.220;10.402;2024-03-02T01:25:19;7.70;99.90
13229;DHT22;6680;53.220;10.402;2024-03-02T01:27:47;7.70;99.90
13229;DHT22;6680;53.220;10.402;2024-03-02T01:30:14;7.70;99.90
13229;DHT22;6680;53.220;10.402;2024-03-02T01:32:41;7.70;99.90
13229;DHT22;6680;53.220;10.402;2024-03-02T01:35:08;7.70;99.90
13229;DHT22;6680;53.220;10.402;2024-03-02T01:37:35;7.60;99.90
13229;DHT22;6680;53.220;10.402;2024-03-02T01:40:02;7.60;99.90
13229;DHT22;6680;53.220;10.402;2024-03-02T01:42:34;7.60;99.90
13229;DHT22;6680;53.220;10.402;2024-03-02T01:45:03;7.60;99.90
13229;DHT22;6680;53.220;10.402;2024-03-02T01:47:30;7.50;99.90
13229;DHT22;6680;53.220;10.402;2024-03-02T01:49:58;7.50;99.90
13229;DHT22;6680;53.220;10.402;2024-03-02T01:52:25;7.50;99.90
13229;DHT22;6680;53.220;10.402;2024-03-02T01:54:52;7.50;99.90
13229;DHT22;6680;53.220;10.402;2024-03-02T01:57:19;7.50;99.90
13229;DHT22;6680;53.220;10.402;2024-03-02T01:59:46;7.50;99.90
13229;DHT22;6680;53.220;10.402;2024-03-02T02:02:15;7.50;99.90
13229;DHT22;6680;53.220;10.402;2024-03-02T02:04:42;7.50;99.90
13229;DHT22;6680;53.220;10.402;2024-03-02T02:07:10;7.40;99.90
13229;DHT22;6680;53.220;10.402;2024-03-02T02:09:37;7.50;99.90
13229;DHT22;6680;53.220;10.402;2024-03-02T02:12:04;7.50;99.90
13229;DHT22;6680;53.220;10.402;2024-03-02T02:14:32;7.50;99.90
13229;DHT22;6680;53.220;10.402;2024-03-02T02:16:59;7.40;99.90
13229;DHT22;6680;53.220;10.402;2024-03-02T02:19:27;7.50;99.90
13229;DHT22;6680;53.220;10.402;2024-03-02T02:21:55;7.40;99.90
13229;DHT22;6680;53.220;10.402;2024-03-02T02:24:22;7.50;99.90
13229;DHT22;6680;53.220;10.402;2024-03-02T02:26:49;7.50;99.90
13229;DHT22;6680;53.220;10.402;2024-03-02T02:29:15;7.50;99.90
13229;DHT22;6680;53.220;10.402;2024-03-02T02:31:42;7.50;99.90
13229;DHT22;6680;53.220;10.402;2024-03-02T02:34:09;7.60;99.90
13229;DHT22;6680;53.220;10.402;2024-03-02T02:36:38;7.60;99.90
13229;DHT22;6680;53.220;10.402;2024-03-02T02:39:09;7.60;99.90
13229;DHT22;6680;53.220;10.402;2024-03-02T02:41:37;7.60;99.90
13229;DHT22;6680;53.220;10.402;2024-03-02T02:44:04;7.60;99.90
13229;DHT22;6680;53.220;10.402;2024-03-02T02:46:31;7.50;99.90
13229;DHT22;6680;53.220;10.402;2024-03-02T02:48:58;7.60;99.90
13229;DHT22;6680;53.220;10.402;2024-03-02T02:51:25;7.60;99.90
13229;DHT22;6680;53.220;10.402;2024-03-02T02:53:52;7.50;99.90
13229;DHT22;6680;53.220;10.402;2024-03-02T02:56:20;7.50;99.90
13229;DHT22;6680;53.220;10.402;2024-03-02T02:58:47;7.50;99.90
13229;DHT22;6680;53.220;10.402;2024-03-02T03:01:14;7.50;99.90
13229;DHT22;6680;53.220;10.402;2024-03-02T03:03:42;7.50;99.90
13229;DHT22;6680;53.220;10.402;2024-03-02T03:06:09;7.40;99.90
13229;DHT22;6680;53.220;10.402;2024-03-02T03:08:36;8.10;99.90
13229;DHT22;6680;53.220;10.402;2024-03-02T03:11:03;7.40;99.90
13229;DHT22;6680;53.220;10.402;2024-03-02T03:13:31;7.40;99.90
13229;DHT22;6680;53.220;10.402;2024-03-02T03:15:58;7.40;99.90
13229;DHT22;6680;53.220;10.402;2024-03-02T03:18:25;7.40;99.90
13229;DHT22;6680;53.220;10.402;2024-03-02T03:20:52;7.40;99.90
13229;DHT22;6680;53.220;10.402;2024-03-02T03:23:19;7.40;99.90
13229;DHT22;6680;53.220;10.402;2024-03-02T03:25:46;7.40;99.90
13229;DHT22;6680;53.220;10.402;2024-03-02T03:28:13;7.40;99.90
13229;DHT22;6680;53.220;10.402;2024-03-02T03:30:41;7.40;99.90
13229;DHT22;6680;53.220;10.402;2024-03-02T03:33:08;7.40;99.90
13229;DHT22;6680;53.220;10.402;2024-03-02T03:35:36;7.40;99.90
13229;DHT22;6680;53.220;10.402;2024-03-02T03:38:04;7.40;99.90
13229;DHT22;6680;53.220;10.402;2024-03-02T03:40:30;7.40;99.90
13229;DHT22;6680;53.220;10.402;2024-03-02T03:42:57;7.40;99.90
13229;DHT22;6680;53.220;10.402;2024-03-02T03:45:25;7.40;99.90
13229;DHT22;6680;53.220;10.402;2024-03-02T03:47:54;7.40;99.90
13229;DHT22;6680;53.220;10.402;2024-03-02T03:50:21;7.50;99.90
13229;DHT22;6680;53.220;10.402;2024-03-02T03:52:47;7.40;99.90
13229;DHT22;6680;53.220;10.402;2024-03-02T03:55:14;7.40;99.90
13229;DHT22;6680;53.220;10.402;2024-03-02T03:57:41;7.40;99.90
13229;DHT22;6680;53.220;10.402;2024-03-02T04:00:08;7.40;99.90
13229;DHT22;6680;53.220;10.402;2024-03-02T04:02:37;7.40;99.90
13229;DHT22;6680;53.220;10.402;2024-03-02T04:05:06;7.40;99.90
13229;DHT22;6680;53.220;10.402;2024-03-02T04:07:35;7.50;99.90
13229;DHT22;6680;53.220;10.402;2024-03-02T04:10:07;7.50;99.90
13229;DHT22;6680;53.220;10.402;2024-03-02T04:12:35;7.50;99.90
13229;DHT22;6680;53.220;10.402;2024-03-02T04:15:03;7.50;99.90
13229;DHT22;6680;53.220;10.402;2024-03-02T04:17:32;7.40;99.90
13229;DHT22;6680;53.220;10.402;2024-03-02T04:19:59;7.40;99.90
13229;DHT22;6680;53.220;10.402;2024-03-02T04:22:27;7.40;99.90
13229;DHT22;6680;53.220;10.402;2024-03-02T04:24:54;7.40;99.90
13229;DHT22;6680;53.220;10.402;2024-03-02T04:27:21;7.40;99.90
13229;DHT22;6680;53.220;10.402;2024-03-02T04:29:48;7.40;99.90
13229;DHT22;6680;53.220;10.402;2024-03-02T04:32:15;7.40;99.90
13229;DHT22;6680;53.220;10.402;2024-03-02T04:34:42;7.40;99.90
13229;DHT22;6680;53.220;10.402;2024-03-02T04:37:10;7.40;99.90
13229;DHT22;6680;53.220;10.402;2024-03-02T04:39:41;7.40;99.90
13229;DHT22;6680;53.220;10.402;2024-03-02T04:42:08;7.30;99.90
13229;DHT22;6680;53.220;10.402;2024-03-02T04:44:34;7.40;99.90
13229;DHT22;6680;53.220;10.402;2024-03-02T04:47:02;7.30;99.90
13229;DHT22;6680;53.220;10.402;2024-03-02T04:49:29;7.30;99.90
13229;DHT22;6680;53.220;10.402;2024-03-02T04:51:56;7.30;99.90
13229;DHT22;6680;53.220;10.402;2024-03-02T04:54:23;7.30;99.90
13229;DHT22;6680;53.220;10.402;2024-03-02T04:56:51;7.30;99.90
13229;DHT22;6680;53.220;10.402;2024-03-02T04:59:18;7.30;99.90
13229;DHT22;6680;53.220;10.402;2024-03-02T05:01:45;7.20;99.90
13229;DHT22;6680;53.220;10.402;2024-03-02T05:04:12;7.20;99.90
13229;DHT22;6680;53.220;10.402;2024-03-02T05:06:39;7.20;99.90
13229;DHT22;6680;53.220;10.402;2024-03-02T05:09:06;7.10;99.90
13229;DHT22;6680;53.220;10.402;2024-03-02T05:11:33;7.10;99.90
13229;DHT22;6680;53.220;10.402;2024-03-02T05:14:36;7.10;99.90
13229;DHT22;6680;53.220;10.402;2024-03-02T05:17:04;7.10;99.90
13229;DHT22;6680;53.220;10.402;2024-03-02T05:19:31;7.20;99.90
13229;DHT22;6680;53.220;10.402;2024-03-02T05:21:57;7.20;99.90
13229;DHT22;6680;53.220;10.402;2024-03-02T05:24:24;7.20;99.90
13229;DHT22;6680;53.220;10.402;2024-03-02T05:26:53;7.10;99.90
13229;DHT22;6680;53.220;10.402;2024-03-02T05:29:20;7.10;99.90
13229;DHT22;6680;53.220;10.402;2024-03-02T05:31:48;7.10;99.90
13229;DHT22;6680;53.220;10.402;2024-03-02T05:34:15;7.00;99.90
13229;DHT22;6680;53.220;10.402;2024-03-02T05:36:42;7.00;99.90
13229;DHT22;6680;53.220;10.402;2024-03-02T05:39:08;7.00;99.90
13229;DHT22;6680;53.220;10.402;2024-03-02T05:41:36;7.00;99.90
13229;DHT22;6680;53.220;10.402;2024-03-02T05:44:03;7.00;99.90
13229;DHT22;6680;53.220;10.402;2024-03-02T05:46:30;6.90;99.90
13229;DHT22;6680;53.220;10.402;2024-03-02T05:48:59;7.00;99.90
13229;DHT22;6680;53.220;10.402;2024-03-02T05:51:26;6.90;99.90
13229;DHT22;6680;53.220;10.402;2024-03-02T05:53:53;7.00;99.90
13229;DHT22;6680;53.220;10.402;2024-03-02T05:56:20;7.00;99.90
13229;DHT22;6680;53.220;10.402;2024-03-02T05:58:47;6.90;99.90
13229;DHT22;6680;53.220;10.402;2024-03-02T06:01:26;6.90;99.90
13229;DHT22;6680;53.220;10.402;2024-03-02T06:03:55;6.90;99.90
13229;DHT22;6680;53.220;10.402;2024-03-02T06:06:23;6.90;99.90
13229;DHT22;6680;53.220;10.402;2024-03-02T06:08:50;6.90;99.90
13229;DHT22;6680;53.220;10.402;2024-03-02T06:11:17;6.90;99.90
13229;DHT22;6680;53.220;10.402;2024-03-02T06:13:44;6.90;99.90
13229;DHT22;6680;53.220;10.402;2024-03-02T06:16:10;7.00;99.90
13229;DHT22;6680;53.220;10.402;2024-03-02T06:18:37;7.00;99.90
13229;DHT22;6680;53.220;10.402;2024-03-02T06:21:04;7.00;99.90
13229;DHT22;6680;53.220;10.402;2024-03-02T06:23:33;7.00;99.90
13229;DHT22;6680;53.220;10.402;2024-03-02T06:26:00;7.00;99.90
13229;DHT22;6680;53.220;10.402;2024-03-02T06:28:27;7.00;99.90
13229;DHT22;6680;53.220;10.402;2024-03-02T06:30:54;7.10;99.90
13229;DHT22;6680;53.220;10.402;2024-03-02T06:33:21;7.10;99.90
13229;DHT22;6680;53.220;10.402;2024-03-02T06:35:48;7.10;99.90
13229;DHT22;6680;53.220;10.402;2024-03-02T06:38:15;7.10;99.90
13229;DHT22;6680;53.220;10.402;2024-03-02T06:40:43;7.10;99.90
13229;DHT22;6680;53.220;10.402;2024-03-02T06:43:10;7.10;99.90
13229;DHT22;6680;53.220;10.402;2024-03-02T06:45:37;7.10;99.90
13229;DHT22;6680;53.220;10.402;2024-03-02T06:48:05;7.10;99.90
13229;DHT22;6680;53.220;10.402;2024-03-02T06:50:31;7.20;99.90
13229;DHT22;6680;53.220;10.402;2024-03-02T06:52:58;7.20;99.90
13229;DHT22;6680;53.220;10.402;2024-03-02T06:55:25;7.20;99.90
13229;DHT22;6680;53.220;10.402;2024-03-02T06:57:53;7.20;99.90
13229;DHT22;6680;53.220;10.402;2024-03-02T07:00:20;7.20;99.90
13229;DHT22;6680;53.220;10.402;2024-03-02T07:02:47;7.30;99.90
13229;DHT22;6680;53.220;10.402;2024-03-02T07:05:14;7.30;99.90
13229;DHT22;6680;53.220;10.402;2024-03-02T07:07:41;7.30;99.90
13229;DHT22;6680;53.220;10.402;2024-03-02T07:10:08;7.30;99.90
13229;DHT22;6680;53.220;10.402;2024-03-02T07:12:34;7.40;99.90
13229;DHT22;6680;53.220;10.402;2024-03-02T07:15:02;7.40;99.90
13229;DHT22;6680;53.220;10.402;2024-03-02T07:17:50;7.40;99.90
13229;DHT22;6680;53.220;10.402;2024-03-02T07:20:17;7.40;99.90
13229;DHT22;6680;53.220;10.402;2024-03-02T07:22:44;7.40;99.90
13229;DHT22;6680;53.220;10.402;2024-03-02T07:25:11;7.40;99.90
13229;DHT22;6680;53.220;10.402;2024-03-02T07:27:38;7.40;99.90
13229;DHT22;6680;53.220;10.402;2024-03-02T07:30:07;7.50;99.90
13229;DHT22;6680;53.220;10.402;2024-03-02T07:32:34;7.60;99.90
13229;DHT22;6680;53.220;10.402;2024-03-02T07:35:01;7.60;99.90
13229;DHT22;6680;53.220;10.402;2024-03-02T07:37:29;7.70;99.90
13229;DHT22;6680;53.220;10.402;2024-03-02T07:39:56;7.70;99.90
13229;DHT22;6680;53.220;10.402;2024-03-02T07:42:23;7.70;99.90
13229;DHT22;6680;53.220;10.402;2024-03-02T07:44:50;7.80;99.90
13229;DHT22;6680;53.220;10.402;2024-03-02T07:47:18;7.90;99.90
13229;DHT22;6680;53.220;10.402;2024-03-02T07:49:46;7.90;99.90
13229;DHT22;6680;53.220;10.402;2024-03-02T07:52:13;8.00;99.90
13229;DHT22;6680;53.220;10.402;2024-03-02T07:54:40;8.10;99.90
13229;DHT22;6680;53.220;10.402;2024-03-02T07:57:06;8.20;99.90
13229;DHT22;6680;53.220;10.402;2024-03-02T07:59:34;8.20;99.90
13229;DHT22;6680;53.220;10.402;2024-03-02T08:02:00;8.30;99.90
13229;DHT22;6680;53.220;10.402;2024-03-02T08:04:29;8.40;99.90
13229;DHT22;6680;53.220;10.402;2024-03-02T08:06:55;8.40;99.90
13229;DHT22;6680;53.220;10.402;2024-03-02T08:09:22;9.10;99.90
13229;DHT22;6680;53.220;10.402;2024-03-02T08:11:49;8.60;99.90
13229;DHT22;6680;53.220;10.402;2024-03-02T08:14:16;8.80;99.90
13229;DHT22;6680;53.220;10.402;2024-03-02T08:16:43;8.90;99.90
13229;DHT22;6680;53.220;10.402;2024-03-02T08:19:10;8.90;99.90
13229;DHT22;6680;53.220;10.402;2024-03-02T08:21:38;9.00;99.90
13229;DHT22;6680;53.220;10.402;2024-03-02T08:24:05;9.00;99.90
13229;DHT22;6680;53.220;10.402;2024-03-02T08:26:32;9.10;99.90
13229;DHT22;6680;53.220;10.402;2024-03-02T08:28:59;9.20;99.90
13229;DHT22;6680;53.220;10.402;2024-03-02T08:31:27;9.20;99.90
13229;DHT22;6680;53.220;10.402;2024-03-02T08:33:54;9.30;99.90
13229;DHT22;6680;53.220;10.402;2024-03-02T08:36:21;9.40;99.90
13229;DHT22;6680;53.220;10.402;2024-03-02T08:38:50;9.50;99.90
13229;DHT22;6680;53.220;10.402;2024-03-02T08:41:17;9.60;99.90
13229;DHT22;6680;53.220;10.402;2024-03-02T08:43:44;9.60;99.90
13229;DHT22;6680;53.220;10.402;2024-03-02T08:46:11;9.70;99.90
13229;DHT22;6680;53.220;10.402;2024-03-02T08:48:37;9.80;99.90
13229;DHT22;6680;53.220;10.402;2024-03-02T08:51:04;9.90;99.90
13229;DHT22;6680;53.220;10.402;2024-03-02T08:53:33;10.00;99.90
13229;DHT22;6680;53.220;10.402;2024-03-02T08:56:01;10.00;99.90
13229;DHT22;6680;53.220;10.402;2024-03-02T08:58:30;10.20;99.90
13229;DHT22;6680;53.220;10.402;2024-03-02T09:00:57;10.20;99.90
13229;DHT22;6680;53.220;10.402;2024-03-02T09:03:24;10.30;99.90
13229;DHT22;6680;53.220;10.402;2024-03-02T09:05:51;10.30;99.90
13229;DHT22;6680;53.220;10.402;2024-03-02T09:08:18;10.40;99.90
13229;DHT22;6680;53.220;10.402;2024-03-02T09:10:45;10.40;99.90
13229;DHT22;6680;53.220;10.402;2024-03-02T09:13:13;10.50;99.90
13229;DHT22;6680;53.220;10.402;2024-03-02T09:15:40;10.60;99.90
13229;DHT22;6680;53.220;10.402;2024-03-02T09:18:07;10.60;99.90
13229;DHT22;6680;53.220;10.402;2024-03-02T09:20:33;10.70;99.90
13229;DHT22;6680;53.220;10.402;2024-03-02T09:23:01;10.70;99.90
13229;DHT22;6680;53.220;10.402;2024-03-02T09:25:28;10.80;99.90
13229;DHT22;6680;53.220;10.402;2024-03-02T09:27:55;10.80;99.90
13229;DHT22;6680;53.220;10.402;2024-03-02T09:30:23;10.90;99.90
13229;DHT22;6680;53.220;10.402;2024-03-02T09:32:50;10.90;99.90
13229;DHT22;6680;53.220;10.402;2024-03-02T09:35:17;11.00;99.90
13229;DHT22;6680;53.220;10.402;2024-03-02T09:37:43;11.00;99.90
13229;DHT22;6680;53.220;10.402;2024-03-02T09:40:11;11.10;99.90
13229;DHT22;6680;53.220;10.402;2024-03-02T09:42:38;11.20;99.90
13229;DHT22;6680;53.220;10.402;2024-03-02T09:45:06;11.20;99.90
13229;DHT22;6680;53.220;10.402;2024-03-02T09:47:34;11.30;99.90
13229;DHT22;6680;53.220;10.402;2024-03-02T09:50:01;11.20;99.90
13229;DHT22;6680;53.220;10.402;2024-03-02T09:52:30;11.30;99.90
13229;DHT22;6680;53.220;10.402;2024-03-02T09:54:57;11.30;99.90
13229;DHT22;6680;53.220;10.402;2024-03-02T09:57:24;11.40;99.90
13229;DHT22;6680;53.220;10.402;2024-03-02T09:59:50;11.50;99.90
13229;DHT22;6680;53.220;10.402;2024-03-02T10:02:17;11.50;99.90
13229;DHT22;6680;53.220;10.402;2024-03-02T10:04:45;11.60;99.90
13229;DHT22;6680;53.220;10.402;2024-03-02T10:07:16;11.50;99.90
13229;DHT22;6680;53.220;10.402;2024-03-02T10:09:44;11.40;99.90
13229;DHT22;6680;53.220;10.402;2024-03-02T10:12:12;11.50;99.90
13229;DHT22;6680;53.220;10.402;2024-03-02T10:14:40;11.50;99.90
13229;DHT22;6680;53.220;10.402;2024-03-02T10:17:08;11.60;99.90
13229;DHT22;6680;53.220;10.402;2024-03-02T10:19:35;11.60;99.90
13229;DHT22;6680;53.220;10.402;2024-03-02T10:22:05;11.70;99.90
13229;DHT22;6680;53.220;10.402;2024-03-02T10:24:37;11.70;99.90
13229;DHT22;6680;53.220;10.402;2024-03-02T10:27:08;11.80;99.90
13229;DHT22;6680;53.220;10.402;2024-03-02T10:29:39;11.80;99.90
13229;DHT22;6680;53.220;10.402;2024-03-02T10:32:09;11.90;99.90
13229;DHT22;6680;53.220;10.402;2024-03-02T10:34:36;12.00;99.90
13229;DHT22;6680;53.220;10.402;2024-03-02T10:37:05;12.10;99.90
13229;DHT22;6680;53.220;10.402;2024-03-02T10:39:34;12.10;99.90
13229;DHT22;6680;53.220;10.402;2024-03-02T10:42:02;12.20;99.90
13229;DHT22;6680;53.220;10.402;2024-03-02T10:44:30;12.30;99.90
13229;DHT22;6680;53.220;10.402;2024-03-02T10:47:00;12.40;99.90
13229;DHT22;6680;53.220;10.402;2024-03-02T10:49:29;12.40;99.90
13229;DHT22;6680;53.220;10.402;2024-03-02T10:51:56;12.50;99.90
13229;DHT22;6680;53.220;10.402;2024-03-02T10:54:24;12.50;99.90
13229;DHT22;6680;53.220;10.402;2024-03-02T10:56:56;12.50;99.90
13229;DHT22;6680;53.220;10.402;2024-03-02T10:59:27;12.60;99.90
13229;DHT22;6680;53.220;10.402;2024-03-02T11:01:57;12.60;99.90
13229;DHT22;6680;53.220;10.402;2024-03-02T11:04:25;12.60;99.90
13229;DHT22;6680;53.220;10.402;2024-03-02T11:06:56;12.60;99.90
13229;DHT22;6680;53.220;10.402;2024-03-02T11:09:28;12.60;99.90
13229;DHT22;6680;53.220;10.402;2024-03-02T11:12:02;12.60;99.90
13229;DHT22;6680;53.220;10.402;2024-03-02T11:14:30;12.50;99.90
13229;DHT22;6680;53.220;10.402;2024-03-02T11:16:59;12.60;99.90
13229;DHT22;6680;53.220;10.402;2024-03-02T11:19:27;12.60;99.90
13229;DHT22;6680;53.220;10.402;2024-03-02T11:21:55;12.70;99.90
13229;DHT22;6680;53.220;10.402;2024-03-02T11:24:33;12.70;99.90
13229;DHT22;6680;53.220;10.402;2024-03-02T11:27:01;12.70;99.90
13229;DHT22;6680;53.220;10.402;2024-03-02T11:29:44;13.20;99.90
13229;DHT22;6680;53.220;10.402;2024-03-02T11:32:19;12.70;99.90
13229;DHT22;6680;53.220;10.402;2024-03-02T11:34:48;12.70;99.90
13229;DHT22;6680;53.220;10.402;2024-03-02T11:37:16;12.70;99.90
13229;DHT22;6680;53.220;10.402;2024-03-02T11:39:45;12.60;99.90
13229;DHT22;6680;53.220;10.402;2024-03-02T11:42:13;12.70;99.90
13229;DHT22;6680;53.220;10.402;2024-03-02T11:44:42;12.60;99.90
13229;DHT22;6680;53.220;10.402;2024-03-02T11:47:12;12.50;99.90
13229;DHT22;6680;53.220;10.402;2024-03-02T11:49:42;12.50;99.90
13229;DHT22;6680;53.220;10.402;2024-03-02T11:52:11;12.50;99.90
13229;DHT22;6680;53.220;10.402;2024-03-02T11:54:39;12.50;99.90
13229;DHT22;6680;53.220;10.402;2024-03-02T11:57:14;12.50;99.90
13229;DHT22;6680;53.220;10.402;2024-03-02T11:59:41;12.40;99.90
13229;DHT22;6680;53.220;10.402;2024-03-02T12:02:14;12.40;99.90
13229;DHT22;6680;53.220;10.402;2024-03-02T12:04:42;12.40;99.90
13229;DHT22;6680;53.220;10.402;2024-03-02T12:07:10;12.50;99.90
13229;DHT22;6680;53.220;10.402;2024-03-02T12:09:37;12.50;99.90
13229;DHT22;6680;53.220;10.402;2024-03-02T12:12:05;12.40;99.90
13229;DHT22;6680;53.220;10.402;2024-03-02T12:14:35;12.50;99.90
13229;DHT22;6680;53.220;10.402;2024-03-02T12:17:02;12.50;99.90
13229;DHT22;6680;53.220;10.402;2024-03-02T12:19:31;12.50;99.90
13229;DHT22;6680;53.220;10.402;2024-03-02T12:21:58;12.60;99.90
13229;DHT22;6680;53.220;10.402;2024-03-02T12:24:27;12.60;99.90
13229;DHT22;6680;53.220;10.402;2024-03-02T12:26:54;12.70;99.90
13229;DHT22;6680;53.220;10.402;2024-03-02T12:29:22;12.70;99.90
13229;DHT22;6680;53.220;10.402;2024-03-02T12:31:52;12.70;99.90
13229;DHT22;6680;53.220;10.402;2024-03-02T12:34:19;12.80;99.90
13229;DHT22;6680;53.220;10.402;2024-03-02T12:36:46;13.00;99.90
13229;DHT22;6680;53.220;10.402;2024-03-02T12:39:15;13.00;99.90
13229;DHT22;6680;53.220;10.402;2024-03-02T12:41:42;13.00;99.90
13229;DHT22;6680;53.220;10.402;2024-03-02T12:44:09;13.20;99.90
13229;DHT22;6680;53.220;10.402;2024-03-02T12:46:36;13.60;99.90
13229;DHT22;6680;53.220;10.402;2024-03-02T12:49:09;13.30;99.90
13229;DHT22;6680;53.220;10.402;2024-03-02T12:51:38;13.40;99.90
13229;DHT22;6680;53.220;10.402;2024-03-02T12:54:06;13.50;99.90
13229;DHT22;6680;53.220;10.402;2024-03-02T12:56:33;13.60;99.90
13229;DHT22;6680;53.220;10.402;2024-03-02T12:59:00;13.60;99.90
13229;DHT22;6680;53.220;10.402;2024-03-02T13:01:27;13.70;99.90
13229;DHT22;6680;53.220;10.402;2024-03-02T13:03:54;13.70;99.90
13229;DHT22;6680;53.220;10.402;2024-03-02T13:06:24;13.70;99.90
13229;DHT22;6680;53.220;10.402;2024-03-02T13:08:53;13.80;99.90
13229;DHT22;6680;53.220;10.402;2024-03-02T13:11:21;13.70;99.90
13229;DHT22;6680;53.220;10.402;2024-03-02T13:13:48;13.70;99.90
13229;DHT22;6680;53.220;10.402;2024-03-02T13:16:15;13.70;99.90
13229;DHT22;6680;53.220;10.402;2024-03-02T13:18:45;13.80;99.90
13229;DHT22;6680;53.220;10.402;2024-03-02T13:21:11;13.80;99.90
13229;DHT22;6680;53.220;10.402;2024-03-02T13:23:40;13.80;99.90
13229;DHT22;6680;53.220;10.402;2024-03-02T13:26:06;13.80;99.90
13229;DHT22;6680;53.220;10.402;2024-03-02T13:28:36;13.80;99.90
13229;DHT22;6680;53.220;10.402;2024-03-02T13:31:03;13.80;99.90
13229;DHT22;6680;53.220;10.402;2024-03-02T13:33:30;13.80;99.90
13229;DHT22;6680;53.220;10.402;2024-03-02T13:35:58;13.80;99.90
13229;DHT22;6680;53.220;10.402;2024-03-02T13:38:25;13.80;99.90
13229;DHT22;6680;53.220;10.402;2024-03-02T13:40:53;13.80;99.90
13229;DHT22;6680;53.220;10.402;2024-03-02T13:43:20;13.70;99.90
13229;DHT22;6680;53.220;10.402;2024-03-02T13:45:49;13.70;99.90
13229;DHT22;6680;53.220;10.402;2024-03-02T13:48:17;13.70;99.90
13229;DHT22;6680;53.220;10.402;2024-03-02T13:50:44;13.70;99.90
13229;DHT22;6680;53.220;10.402;2024-03-02T13:53:11;13.70;99.90
13229;DHT22;6680;53.220;10.402;2024-03-02T13:55:38;13.80;99.90
13229;DHT22;6680;53.220;10.402;2024-03-02T13:58:07;13.80;99.90
13229;DHT22;6680;53.220;10.402;2024-03-02T14:00:34;13.70;99.90
13229;DHT22;6680;53.220;10.402;2024-03-02T14:03:01;13.60;99.90
13229;DHT22;6680;53.220;10.402;2024-03-02T14:05:29;13.60;99.90
13229;DHT22;6680;53.220;10.402;2024-03-02T14:07:56;13.60;99.90
13229;DHT22;6680;53.220;10.402;2024-03-02T14:10:24;13.50;99.90
13229;DHT22;6680;53.220;10.402;2024-03-02T14:12:51;13.50;99.90
13229;DHT22;6680;53.220;10.402;2024-03-02T14:15:19;13.50;99.90
13229;DHT22;6680;53.220;10.402;2024-03-02T14:17:46;13.40;99.90
13229;DHT22;6680;53.220;10.402;2024-03-02T14:20:13;13.40;99.90
13229;DHT22;6680;53.220;10.402;2024-03-02T14:22:40;13.40;99.90
13229;DHT22;6680;53.220;10.402;2024-03-02T14:25:07;13.30;99.90
13229;DHT22;6680;53.220;10.402;2024-03-02T14:27:34;13.30;99.90
13229;DHT22;6680;53.220;10.402;2024-03-02T14:30:02;13.20;99.90
13229;DHT22;6680;53.220;10.402;2024-03-02T14:32:30;13.20;99.90
13229;DHT22;6680;53.220;10.402;2024-03-02T14:34:57;13.20;99.90
13229;DHT22;6680;53.220;10.402;2024-03-02T14:37:23;13.10;99.90
13229;DHT22;6680;53.220;10.402;2024-03-02T14:39:50;13.10;99.90
13229;DHT22;6680;53.220;10.402;2024-03-02T14:42:17;13.10;99.90
13229;DHT22;6680;53.220;10.402;2024-03-02T14:44:44;13.00;99.90
13229;DHT22;6680;53.220;10.402;2024-03-02T14:47:11;13.10;99.90
13229;DHT22;6680;53.220;10.402;2024-03-02T14:49:39;13.10;99.90
13229;DHT22;6680;53.220;10.402;2024-03-02T14:52:07;13.10;99.90
13229;DHT22;6680;53.220;10.402;2024-03-02T14:54:34;13.20;99.90
13229;DHT22;6680;53.220;10.402;2024-03-02T14:57:01;13.20;99.90
13229;DHT22;6680;53.220;10.402;2024-03-02T14:59:29;13.20;99.90
13229;DHT22;6680;53.220;10.402;2024-03-02T15:01:56;13.20;99.90
13229;DHT22;6680;53.220;10.402;2024-03-02T15:04:23;13.30;99.90
13229;DHT22;6680;53.220;10.402;2024-03-02T15:06:51;13.40;99.90
13229;DHT22;6680;53.220;10.402;2024-03-02T15:09:18;13.40;99.90
13229;DHT22;6680;53.220;10.402;2024-03-02T15:11:45;13.50;99.90
13229;DHT22;6680;53.220;10.402;2024-03-02T15:14:12;13.50;99.90
13229;DHT22;6680;53.220;10.402;2024-03-02T15:16:39;13.60;99.90
13229;DHT22;6680;53.220;10.402;2024-03-02T15:19:07;13.50;99.90
13229;DHT22;6680;53.220;10.402;2024-03-02T15:21:34;13.50;99.90
13229;DHT22;6680;53.220;10.402;2024-03-02T15:24:03;13.40;99.90
13229;DHT22;6680;53.220;10.402;2024-03-02T15:26:30;13.40;99.90
13229;DHT22;6680;53.220;10.402;2024-03-02T15:28:57;13.40;99.90
13229;DHT22;6680;53.220;10.402;2024-03-02T15:31:24;13.40;99.90
13229;DHT22;6680;53.220;10.402;2024-03-02T15:33:52;13.40;99.90
13229;DHT22;6680;53.220;10.402;2024-03-02T15:36:21;13.40;99.90
13229;DHT22;6680;53.220;10.402;2024-03-02T15:38:48;13.30;99.90
13229;DHT22;6680;53.220;10.402;2024-03-02T15:41:16;13.30;99.90
13229;DHT22;6680;53.220;10.402;2024-03-02T15:43:43;13.20;99.90